Time;durP1;ratioP1;P1;durP2;ratioP2;P2;SDS_P1;SDS_P2;PMS_P1;PMS_P2;Temp;Humidity;BMP_temperature;BMP_pressure;BME280_temperature;BME280_humidity;BME280_pressure;Samples;Min_cycle;Max_cycle;Signal;HPM_P1;HPM_P2
2022/08/07 00:01:05;;;;;;;1999.90;999.90;;;;;;;16.55;45.54;99954.75;9998314;23;20537;-74
2022/08/07 00:05:27;;;;;;;1999.90;999.90;;;;;;;16.51;45.74;99954.81;10027604;23;20444;-74
2022/08/07 00:09:29;;;;;;;1999.90;999.90;;;;;;;16.52;46.03;99953.97;10028017;23;20023;-74
2022/08/07 00:13:36;;;;;;;1999.90;999.90;;;;;;;16.44;46.47;99942.75;10026818;23;20037;-73
2022/08/07 00:17:45;;;;;;;1999.90;999.90;;;;;;;16.41;46.19;99943.69;10022971;23;20504;-74
2022/08/07 00:21:49;;;;;;;1999.90;999.90;;;;;;;16.37;46.55;99943.78;10001311;23;20094;-74
2022/08/07 00:26:04;;;;;;;1999.90;999.90;;;;;;;16.35;46.31;99929.84;10027370;23;20057;-74
2022/08/07 00:30:20;;;;;;;1999.90;999.90;;;;;;;16.35;46.49;99929.84;10000856;23;20043;-74
2022/08/07 00:34:29;;;;;;;1999.90;999.90;;;;;;;16.28;46.33;99934.31;9979166;23;20475;-73
2022/08/07 00:38:35;;;;;;;1999.90;999.90;;;;;;;16.25;46.69;99923.88;10026276;23;20050;-74
2022/08/07 00:42:37;;;;;;;1999.90;999.90;;;;;;;16.22;46.04;99926.56;10001820;23;20027;-73
2022/08/07 00:46:39;;;;;;;1999.90;999.90;;;;;;;16.24;46.70;99924.78;10022398;23;20035;-74
2022/08/07 00:50:43;;;;;;;1999.90;999.90;;;;;;;16.21;47.04;99922.22;10042099;23;20019;-73
2022/08/07 00:54:52;;;;;;;1999.90;999.90;;;;;;;16.17;47.39;99917.94;10003515;23;20477;-73
2022/08/07 00:58:55;;;;;;;1999.90;999.90;;;;;;;16.08;47.16;99913.72;10002116;23;20026;-74
2022/08/07 01:02:56;;;;;;;1999.90;999.90;;;;;;;16.02;47.09;99916.47;10022371;23;20343;-74
2022/08/07 01:06:58;;;;;;;1999.90;999.90;;;;;;;16.04;47.29;99908.56;10026580;23;20214;-74
2022/08/07 01:11:00;;;;;;;1999.90;999.90;;;;;;;15.99;47.18;99903.44;10001234;23;20027;-73
2022/08/07 01:15:24;;;;;;;1999.90;999.90;;;;;;;15.95;47.23;99896.50;10021333;23;20637;-73
2022/08/07 01:19:46;;;;;;;1999.90;999.90;;;;;;;15.92;47.10;99894.78;10025271;23;20030;-73
2022/08/07 01:23:56;;;;;;;1999.90;999.90;;;;;;;15.90;47.03;99898.34;9978667;23;20027;-73
2022/08/07 01:27:57;;;;;;;1999.90;999.90;;;;;;;15.89;46.89;99905.34;10042293;23;20030;-73
2022/08/07 01:32:00;;;;;;;1999.90;999.90;;;;;;;15.89;47.47;99900.09;10021148;23;20069;-73
2022/08/07 01:36:12;;;;;;;1999.90;999.90;;;;;;;15.85;47.48;99898.44;10040879;23;20426;-73
2022/08/07 01:40:20;;;;;;;1999.90;999.90;;;;;;;15.82;47.34;99900.25;10026607;23;20622;-73
2022/08/07 01:44:24;;;;;;;1999.90;999.90;;;;;;;15.83;47.67;99902.84;10025856;23;20082;-73
2022/08/07 01:48:26;;;;;;;1999.90;999.90;;;;;;;15.80;47.97;99895.03;10021143;23;20084;-73
2022/08/07 01:52:34;;;;;;;1999.90;999.90;;;;;;;15.75;47.85;99894.22;10025706;23;20027;-73
2022/08/07 01:56:55;;;;;;;1999.90;999.90;;;;;;;15.73;47.98;99896.00;10025699;23;20014;-73
2022/08/07 02:01:02;;;;;;;1999.90;999.90;;;;;;;15.62;48.15;99900.59;10021426;23;20033;-74
2022/08/07 02:05:32;;;;;;;1999.90;999.90;;;;;;;15.54;48.27;99891.94;10031252;23;20114;-74
2022/08/07 02:09:55;;;;;;;1999.90;999.90;;;;;;;15.51;48.32;99884.16;10005903;23;20059;-74
2022/08/07 02:14:00;;;;;;;1999.90;999.90;;;;;;;15.46;49.14;99891.22;10006922;23;20429;-74
2022/08/07 02:18:04;;;;;;;1999.90;999.90;;;;;;;14.97;51.22;99890.22;10006338;23;20014;-73
2022/08/07 02:22:11;;;;;;;1999.90;999.90;;;;;;;14.67;52.52;99883.63;10046509;23;20081;-73
2022/08/07 02:26:19;;;;;;;1999.90;999.90;;;;;;;14.44;54.09;99878.72;10031184;23;20102;-73
2022/08/07 02:30:35;;;;;;;1999.90;999.90;;;;;;;14.24;55.22;99878.06;10002296;23;20382;-73
2022/08/07 02:34:38;;;;;;;1999.90;999.90;;;;;;;14.04;55.77;99875.66;10030956;23;20030;-73
2022/08/07 02:38:52;;;;;;;1999.90;999.90;;;;;;;13.88;55.66;99874.97;10031690;23;20037;-74
2022/08/07 02:42:58;;;;;;;1999.90;999.90;;;;;;;13.67;56.32;99871.69;10006325;23;20050;-73
2022/08/07 02:47:02;;;;;;;1999.90;999.90;;;;;;;13.51;57.84;99876.19;10027267;23;20030;-73
2022/08/07 02:51:12;;;;;;;1999.90;999.90;;;;;;;13.31;58.78;99871.13;10030890;23;20027;-73
2022/08/07 02:55:38;;;;;;;1999.90;999.90;;;;;;;13.21;59.23;99862.50;10030215;23;20110;-74
2022/08/07 03:00:01;;;;;;;1999.90;999.90;;;;;;;13.13;59.78;99853.84;10009503;23;20474;-73
2022/08/07 03:04:13;;;;;;;1999.90;999.90;;;;;;;13.05;60.80;99855.63;10028117;23;20479;-73
2022/08/07 03:08:16;;;;;;;1999.90;999.90;;;;;;;12.95;60.84;99851.38;10030779;23;20026;-73
2022/08/07 03:12:27;;;;;;;1999.90;999.90;;;;;;;12.80;61.20;99847.09;10028387;23;20034;-73
2022/08/07 03:16:33;;;;;;;1999.90;999.90;;;;;;;12.70;61.50;99848.88;10023771;23;20054;-73
2022/08/07 03:20:35;;;;;;;1999.90;999.90;;;;;;;12.62;62.27;99850.69;10029730;23;20065;-73
2022/08/07 03:24:36;;;;;;;1999.90;999.90;;;;;;;12.49;62.32;99850.75;10019549;23;20033;-73
2022/08/07 03:28:40;;;;;;;1999.90;999.90;;;;;;;12.40;63.27;99846.47;10003905;23;20311;-73
2022/08/07 03:32:46;;;;;;;1999.90;999.90;;;;;;;12.30;63.11;99843.03;10023579;23;20031;-73
2022/08/07 03:37:01;;;;;;;1999.90;999.90;;;;;;;12.23;64.15;99850.88;10003272;23;20087;-73
2022/08/07 03:41:14;;;;;;;1999.90;999.90;;;;;;;12.13;64.11;99851.75;10002944;23;20363;-73
2022/08/07 03:45:17;;;;;;;1999.90;999.90;;;;;;;11.98;64.18;99855.28;10025335;23;20078;-73
2022/08/07 03:49:32;;;;;;;1999.90;999.90;;;;;;;11.92;65.24;99861.38;10029249;23;20134;-73
2022/08/07 03:53:34;;;;;;;1999.90;999.90;;;;;;;11.94;65.09;99850.94;10002667;23;20027;-73
2022/08/07 03:57:56;;;;;;;1999.90;999.90;;;;;;;11.91;65.36;99856.16;10027076;23;20069;-73
2022/08/07 04:02:17;;;;;;;1999.90;999.90;;;;;;;11.88;65.46;99853.59;10023303;23;20031;-73
2022/08/07 04:06:19;;;;;;;1999.90;999.90;;;;;;;11.78;65.27;99863.09;10028105;23;20018;-73
2022/08/07 04:10:40;;;;;;;1999.90;999.90;;;;;;;11.72;66.20;99863.97;9982809;23;20026;-73
2022/08/07 04:14:43;;;;;;;1999.90;999.90;;;;;;;11.67;66.24;99859.63;10027515;23;20102;-73
2022/08/07 04:18:48;;;;;;;1999.90;999.90;;;;;;;11.60;66.58;99857.91;10027719;23;20444;-73
2022/08/07 04:23:02;;;;;;;1999.90;999.90;;;;;;;11.56;66.85;99853.59;10002756;23;20110;-73
2022/08/07 04:27:07;;;;;;;1999.90;999.90;;;;;;;11.51;67.88;99866.59;10002295;23;20019;-73
2022/08/07 04:31:26;;;;;;;1999.90;999.90;;;;;;;11.46;67.45;99864.00;10023727;23;20099;-73
2022/08/07 04:35:47;;;;;;;1999.90;999.90;;;;;;;11.42;66.99;99875.25;10011700;23;20486;-73
2022/08/07 04:39:51;;;;;;;1999.90;999.90;;;;;;;11.38;67.85;99881.34;10027000;23;20265;-73
2022/08/07 04:43:54;;;;;;;1999.90;999.90;;;;;;;11.46;67.90;99881.31;10024503;23;20030;-73
2022/08/07 04:48:26;;;;;;;1999.90;999.90;;;;;;;11.55;67.39;99889.13;10040485;23;20062;-73
2022/08/07 04:52:55;;;;;;;1999.90;999.90;;;;;;;11.67;68.48;99885.63;10027771;23;20058;-73
2022/08/07 04:57:19;;;;;;;1999.90;999.90;;;;;;;11.72;68.32;99883.94;10002845;23;20029;-73
2022/08/07 05:01:53;;;;;;;1999.90;999.90;;;;;;;11.88;67.49;99895.22;10022046;23;20027;-73
2022/08/07 05:06:40;;;;;;;1999.90;999.90;;;;;;;12.11;65.89;99893.41;10026543;23;20388;-73
2022/08/07 05:10:49;;;;;;;1999.90;999.90;;;;;;;12.30;65.43;99891.63;10028888;23;20038;-73
2022/08/07 05:15:16;;;;;;;1999.90;999.90;;;;;;;12.51;65.55;99899.34;10026409;23;20018;-73
2022/08/07 05:19:29;;;;;;;1999.90;999.90;;;;;;;12.62;64.95;99894.09;10026658;23;20034;-73
2022/08/07 05:23:54;;;;;;;1999.90;999.90;;;;;;;12.81;64.89;99903.56;10041303;23;20093;-73
2022/08/07 05:27:57;;;;;;;1999.90;999.90;;;;;;;12.96;64.55;99906.09;10025534;23;20023;-73
2022/08/07 05:32:19;;;;;;;1999.90;999.90;;;;;;;13.08;63.78;99897.31;10021311;23;20026;-73
2022/08/07 05:36:22;;;;;;;1999.90;999.90;;;;;;;13.28;63.85;99900.72;10023549;23;20682;-73
2022/08/07 05:40:36;;;;;;;1999.90;999.90;;;;;;;13.78;62.96;99902.00;10025682;23;20094;-73
2022/08/07 05:44:53;;;;;;;1999.90;999.90;;;;;;;14.87;59.88;99903.41;10027534;23;20454;-74
2022/08/07 05:49:14;;;;;;;1999.90;999.90;;;;;;;15.66;57.71;99908.34;10024403;23;20030;-73
2022/08/07 05:53:17;;;;;;;1999.90;999.90;;;;;;;15.98;55.60;99914.78;10025509;23;20031;-73
2022/08/07 05:57:41;;;;;;;1999.90;999.90;;;;;;;16.19;55.94;99908.28;10025769;23;20027;-74
2022/08/07 06:01:46;;;;;;;1999.90;999.90;;;;;;;16.40;55.24;99912.25;10022119;23;20035;-74
2022/08/07 06:05:48;;;;;;;1999.90;999.90;;;;;;;16.89;54.65;99909.53;10025094;23;20039;-74
2022/08/07 06:09:58;;;;;;;1999.90;999.90;;;;;;;17.47;53.20;99914.28;10026636;23;20481;-73
2022/08/07 06:14:06;;;;;;;1999.90;999.90;;;;;;;17.98;50.69;99913.91;10025623;23;20038;-74
2022/08/07 06:18:22;;;;;;;1999.90;999.90;;;;;;;18.51;48.08;99910.72;10024765;23;20022;-74
2022/08/07 06:22:30;;;;;;;1999.90;999.90;;;;;;;19.01;46.49;99922.41;10026168;23;20019;-74
2022/08/07 06:26:42;;;;;;;1999.90;999.90;;;;;;;19.66;46.28;99923.91;10024994;23;20023;-74
2022/08/07 06:30:44;;;;;;;1999.90;999.90;;;;;;;20.10;43.16;99914.47;10018852;23;20038;-75
2022/08/07 06:34:51;;;;;;;1999.90;999.90;;;;;;;20.55;42.38;99912.03;10021243;23;20129;-74
2022/08/07 06:38:53;;;;;;;1999.90;999.90;;;;;;;21.01;41.60;99913.81;10024931;23;20062;-74
2022/08/07 06:43:17;;;;;;;1999.90;999.90;;;;;;;21.50;39.08;99903.94;10025661;23;20149;-74
2022/08/07 06:47:23;;;;;;;1999.90;999.90;;;;;;;21.90;37.97;99907.56;10022739;23;20033;-73
2022/08/07 06:51:30;;;;;;;1999.90;999.90;;;;;;;22.26;36.54;99903.38;10028801;23;20022;-75
2022/08/07 06:55:35;;;;;;;1999.90;999.90;;;;;;;22.55;36.41;99907.34;10025601;23;20126;-76
2022/08/07 06:59:58;;;;;;;1999.90;999.90;;;;;;;22.83;35.45;99906.13;10029764;23;20031;-75
2022/08/07 07:04:19;;;;;;;;;;;;;;;23.16;34.73;99904.56;10027544;23;20058;-77
2022/08/07 07:08:34;;;;;;;1999.90;999.90;;;;;;;23.32;34.41;99909.94;10026795;23;20287;-76
2022/08/07 07:12:50;;;;;;;1999.90;999.90;;;;;;;23.49;34.10;99907.34;10028056;23;20023;-76
2022/08/07 07:16:57;;;;;;;1999.90;999.90;;;;;;;23.80;34.18;99903.19;10049544;23;20428;-76
2022/08/07 07:21:09;;;;;;;1999.90;999.90;;;;;;;23.94;33.10;99898.06;10026259;23;20117;-76
2022/08/07 07:25:21;;;;;;;1999.90;999.90;;;;;;;24.09;33.46;99902.56;10047958;23;20074;-76
2022/08/07 07:29:48;;;;;;;1999.90;999.90;;;;;;;24.28;32.53;99897.16;10025554;23;20030;-76
2022/08/07 07:34:15;;;;;;;1999.90;999.90;;;;;;;24.50;32.52;99899.56;10023126;23;20264;-76
2022/08/07 07:38:19;;;;;;;1999.90;999.90;;;;;;;24.68;32.23;99900.38;10025227;23;20094;-78
2022/08/07 07:42:25;;;;;;;1999.90;999.90;;;;;;;24.72;31.83;99883.31;10025294;23;20451;-76
2022/08/07 07:46:36;;;;;;;1999.90;999.90;;;;;;;24.96;32.29;99886.44;10020265;23;20050;-76
2022/08/07 07:50:58;;;;;;;1999.90;999.90;;;;;;;25.26;31.96;99883.88;10026485;23;20069;-76
2022/08/07 07:55:04;;;;;;;1999.90;999.90;;;;;;;25.32;31.53;99885.34;10026718;23;20030;-76
2022/08/07 07:59:07;;;;;;;1999.90;999.90;;;;;;;25.41;31.18;99883.00;10026415;23;20319;-76
2022/08/07 08:03:14;;;;;;;1999.90;999.90;;;;;;;25.47;31.13;99884.44;10020618;23;20030;-76
2022/08/07 08:07:18;;;;;;;1999.90;999.90;;;;;;;25.59;31.20;99878.41;10024543;23;20023;-76
2022/08/07 08:11:20;;;;;;;1999.90;999.90;;;;;;;25.72;31.12;99875.94;10026323;23;20754;-76
2022/08/07 08:15:45;;;;;;;1999.90;999.90;;;;;;;25.92;30.59;99870.28;10023838;23;20127;-76
2022/08/07 08:20:04;;;;;;;1999.90;999.90;;;;;;;26.12;30.75;99872.59;10026445;23;20027;-75
2022/08/07 08:28:59;;;;;;;1999.90;999.90;;;;;;;26.25;30.32;99863.88;10025186;23;20019;-75
2022/08/07 08:33:04;;;;;;;1999.90;999.90;;;;;;;26.43;30.24;99871.59;10017880;23;20057;-75
2022/08/07 08:37:12;;;;;;;1999.90;999.90;;;;;;;26.49;30.54;99862.38;10024673;23;20054;-75
2022/08/07 08:41:58;;;;;;;1999.90;999.90;;;;;;;26.78;30.51;99855.22;10024016;23;20030;-75
2022/08/07 08:46:15;;;;;;;1999.90;999.90;;;;;;;26.80;30.09;99861.28;10020573;23;20033;-75
2022/08/07 08:50:26;;;;;;;1999.90;999.90;;;;;;;26.84;30.12;99860.13;10024395;23;20847;-75
2022/08/07 08:54:45;;;;;;;1999.90;999.90;;;;;;;26.90;30.16;99862.41;10023135;23;20049;-75
2022/08/07 08:59:02;;;;;;;1999.90;999.90;;;;;;;27.08;30.29;99853.25;10021765;23;20018;-75
2022/08/07 09:03:34;;;;;;;1999.90;999.90;;;;;;;27.20;30.24;99853.41;10018829;23;20489;-75
2022/08/07 09:08:01;;;;;;;1999.90;999.90;;;;;;;27.34;29.77;99850.69;10047332;23;20019;-74
2022/08/07 09:12:23;;;;;;;1999.90;999.90;;;;;;;27.40;30.35;99845.78;10040588;23;20109;-75
2022/08/07 09:16:47;;;;;;;1999.90;999.90;;;;;;;27.50;29.94;99842.53;10022832;23;20061;-74
2022/08/07 09:21:16;;;;;;;1999.90;999.90;;;;;;;27.69;29.77;99845.69;10023575;23;20052;-75
2022/08/07 09:25:49;;;;;;;1999.90;999.90;;;;;;;27.74;29.54;99848.91;10041654;23;20409;-74
2022/08/07 09:29:57;;;;;;;1999.90;999.90;;;;;;;27.65;29.23;99837.06;10024599;23;20031;-74
2022/08/07 09:34:24;;;;;;;1999.90;999.90;;;;;;;27.77;29.49;99835.34;10021690;23;20041;-74
2022/08/07 09:38:42;;;;;;;1999.90;999.90;;;;;;;27.92;29.07;99831.63;10022171;23;20023;-74
2022/08/07 09:43:02;;;;;;;1999.90;999.90;;;;;;;27.98;29.27;99836.53;10025916;23;20023;-76
2022/08/07 09:47:28;;;;;;;1999.90;999.90;;;;;;;27.98;29.05;99831.19;10020270;23;20430;-75
2022/08/07 09:52:04;;;;;;;;;;;;;;;28.05;28.78;99820.97;10024902;23;20105;-74
2022/08/07 09:56:46;;;;;;;1999.90;999.90;;;;;;;28.08;28.72;99823.41;10002942;23;19925;-74
2022/08/07 10:01:14;;;;;;;1999.90;999.90;;;;;;;28.20;28.94;99829.72;9994590;23;20054;-76
2022/08/07 10:06:10;;;;;;;1999.90;999.90;;;;;;;28.33;29.32;99811.88;10023260;23;20050;-76
2022/08/07 10:10:23;;;;;;;1999.90;999.90;;;;;;;28.45;28.26;99802.13;10023846;23;20027;-75
2022/08/07 10:15:00;;;;;;;1999.90;999.90;;;;;;;28.44;28.14;99795.09;10041283;23;20891;-75
2022/08/07 10:19:40;;;;;;;1999.90;999.90;;;;;;;28.48;27.65;99788.56;10018060;23;20494;-75
2022/08/07 10:23:59;;;;;;;1999.90;999.90;;;;;;;28.67;28.09;99788.06;10023380;23;20117;-75
2022/08/07 10:28:38;;;;;;;1999.90;999.90;;;;;;;28.82;27.39;99781.59;10023999;23;20033;-75
2022/08/07 10:32:59;;;;;;;1999.90;999.90;;;;;;;28.85;26.34;99782.22;9990907;23;20030;-76
2022/08/07 10:37:20;;;;;;;1999.90;999.90;;;;;;;28.84;25.10;99782.34;9994128;23;20420;-75
2022/08/07 10:41:50;;;;;;;1999.90;999.90;;;;;;;28.78;25.20;99783.66;10022389;23;20061;-73
2022/08/07 10:46:19;;;;;;;1999.90;999.90;;;;;;;28.86;25.31;99769.75;10023104;23;20082;-74
2022/08/07 10:50:41;;;;;;;1999.90;999.90;;;;;;;29.03;25.99;99761.31;10043543;23;20553;-74
2022/08/07 10:54:58;;;;;;;1999.90;999.90;;;;;;;29.15;25.60;99757.75;10026334;23;20196;-74
2022/08/07 10:59:43;;;;;;;1999.90;999.90;;;;;;;29.20;25.38;99762.75;10027897;23;20022;-74
2022/08/07 11:03:55;;;;;;;1999.90;999.90;;;;;;;29.24;25.40;99764.19;10021321;23;20031;-75
2022/08/07 11:08:57;;;;;;;1999.90;999.90;;;;;;;29.25;25.71;99759.72;10023703;23;20510;-75
2022/08/07 11:13:06;;;;;;;1999.90;999.90;;;;;;;29.25;25.76;99749.00;10025318;23;20447;-75
2022/08/07 11:17:48;;;;;;;1999.90;999.90;;;;;;;29.41;24.83;99747.72;10024941;23;20050;-75
2022/08/07 11:22:25;;;;;;;1999.90;999.90;;;;;;;29.37;24.28;99738.22;10024040;23;20023;-75
2022/08/07 11:27:02;;;;;;;1999.90;999.90;;;;;;;29.30;23.28;99741.50;10024007;23;20121;-75
2022/08/07 11:31:15;;;;;;;1999.90;999.90;;;;;;;29.41;24.20;99734.34;10018557;23;20435;-75
2022/08/07 11:35:21;;;;;;;1999.90;999.90;;;;;;;29.50;24.11;99735.50;10024711;23;20033;-75
2022/08/07 11:39:45;;;;;;;1999.90;999.90;;;;;;;29.64;24.06;99724.59;10042213;23;20031;-75
2022/08/07 11:44:17;;;;;;;1999.90;999.90;;;;;;;29.88;23.96;99727.16;10025069;23;20027;-75
2022/08/07 11:48:56;;;;;;;1999.90;999.90;;;;;;;29.92;23.60;99728.59;10020476;23;20023;-74
2022/08/07 11:53:36;;;;;;;1999.90;999.90;;;;;;;29.85;23.43;99723.88;9944957;23;20030;-73
2022/08/07 11:58:01;;;;;;;1999.90;999.90;;;;;;;29.85;23.49;99711.34;10046328;23;20041;-73
2022/08/07 12:02:20;;;;;;;1999.90;999.90;;;;;;;29.88;23.48;99707.56;10029674;23;20057;-73
2022/08/07 12:06:45;;;;;;;1999.90;999.90;;;;;;;29.95;23.31;99706.94;10000917;23;20054;-73
2022/08/07 12:11:34;;;;;;;1999.90;999.90;;;;;;;30.02;23.33;99713.53;10026000;23;20106;-74
2022/08/07 12:15:49;;;;;;;1999.90;999.90;;;;;;;30.07;23.77;99703.31;9996858;23;20035;-74
2022/08/07 12:20:17;;;;;;;1999.90;999.90;;;;;;;29.97;23.93;99715.69;10026128;23;20423;-74
2022/08/07 12:25:51;;;;;;;1999.90;999.90;;;;;;;30.07;23.14;99713.19;10026893;23;20023;-73
2022/08/07 12:29:16;;;;;;;1999.90;999.90;;;;;;;30.04;23.69;99706.25;10026292;23;20065;-74
2022/08/07 12:33:39;;;;;;;1999.90;999.90;;;;;;;30.02;23.15;99689.44;10019403;23;20164;-74
2022/08/07 12:38:03;;;;;;;1999.90;999.90;;;;;;;30.08;23.89;99688.09;10041957;23;20022;-73
2022/08/07 12:42:12;;;;;;;1999.90;999.90;;;;;;;30.23;24.16;99691.38;10024276;23;20117;-74
2022/08/07 12:46:13;;;;;;;1999.90;999.90;;;;;;;30.33;23.20;99693.16;10020485;23;20334;-74
2022/08/07 12:50:38;;;;;;;1999.90;999.90;;;;;;;30.28;23.56;99678.44;10027140;23;20369;-74
2022/08/07 12:54:57;;;;;;;1999.90;999.90;;;;;;;30.36;23.25;99679.53;10027080;23;20027;-74
2022/08/07 12:59:07;;;;;;;1999.90;999.90;;;;;;;30.41;22.59;99675.63;10041929;23;20014;-74
2022/08/07 13:03:23;;;;;;;1999.90;999.90;;;;;;;30.45;22.61;99674.38;10026469;23;20023;-74
2022/08/07 13:08:05;;;;;;;1999.90;999.90;;;;;;;30.48;22.38;99666.94;10025109;23;20106;-74
2022/08/07 13:12:26;;;;;;;1999.90;999.90;;;;;;;30.40;21.92;99664.06;10026167;23;20390;-74
2022/08/07 13:16:46;;;;;;;1999.90;999.90;;;;;;;30.45;21.92;99666.34;10044162;23;20027;-74
2022/08/07 13:21:08;;;;;;;1999.90;999.90;;;;;;;30.57;22.96;99654.63;10024688;23;20110;-74
2022/08/07 13:25:22;;;;;;;1999.90;999.90;;;;;;;30.54;23.52;99650.38;10000621;23;20027;-74
2022/08/07 13:29:41;;;;;;;1999.90;999.90;;;;;;;30.77;23.40;99643.13;10025903;23;20050;-74
2022/08/07 13:33:58;;;;;;;1999.90;999.90;;;;;;;30.76;23.28;99637.88;10020904;23;20045;-74
2022/08/07 13:38:27;;;;;;;1999.90;999.90;;;;;;;30.65;23.22;99638.78;10024821;23;20101;-74
2022/08/07 13:42:34;;;;;;;1999.90;999.90;;;;;;;30.63;23.88;99635.38;10024657;23;20686;-74
2022/08/07 13:46:45;;;;;;;1999.90;999.90;;;;;;;30.72;23.07;99620.34;10019539;23;20503;-74
2022/08/07 13:50:52;;;;;;;1999.90;999.90;;;;;;;30.61;23.33;99627.47;10023617;23;20454;-74
2022/08/07 13:55:11;;;;;;;1999.90;999.90;;;;;;;30.56;23.51;99632.31;10026112;23;20467;-74
2022/08/07 13:59:24;;;;;;;1999.90;999.90;;;;;;;30.50;23.05;99618.56;10025966;23;20729;-74
2022/08/07 14:03:30;;;;;;;1999.90;999.90;;;;;;;30.52;22.92;99622.84;10019731;23;20031;-74
2022/08/07 14:07:53;;;;;;;1999.90;999.90;;;;;;;30.48;22.51;99612.47;10023975;23;20520;-74
2022/08/07 14:12:06;;;;;;;1999.90;999.90;;;;;;;30.47;23.65;99617.00;10025259;23;20102;-74
2022/08/07 14:16:16;;;;;;;1999.90;999.90;;;;;;;30.47;23.29;99613.47;10020796;23;20037;-74
2022/08/07 14:20:23;;;;;;;1999.90;999.90;;;;;;;30.58;23.57;99598.19;10025852;23;20022;-74
2022/08/07 14:24:50;;;;;;;1999.90;999.90;;;;;;;30.73;22.67;99603.28;10024966;23;20471;-73
2022/08/07 14:28:52;;;;;;;1999.90;999.90;;;;;;;30.55;21.59;99589.56;10023135;23;20051;-74
2022/08/07 14:33:02;;;;;;;1999.90;999.90;;;;;;;30.52;22.52;99605.88;10015542;23;20030;-74
2022/08/07 14:37:10;;;;;;;1999.90;999.90;;;;;;;30.61;23.23;99602.44;10025577;23;20411;-74
2022/08/07 14:41:31;;;;;;;1999.90;999.90;;;;;;;30.55;23.03;99600.28;10023650;23;20446;-74
2022/08/07 14:45:56;;;;;;;1999.90;999.90;;;;;;;30.62;23.48;99577.38;10019678;23;20114;-74
2022/08/07 14:49:58;;;;;;;1999.90;999.90;;;;;;;30.76;23.38;99585.09;10024539;23;20053;-74
2022/08/07 14:54:01;;;;;;;1999.90;999.90;;;;;;;30.59;23.36;99573.09;10021562;23;20026;-74
2022/08/07 14:58:30;;;;;;;1999.90;999.90;;;;;;;30.75;23.41;99578.03;10022762;23;20098;-74
2022/08/07 15:02:35;;;;;;;1999.90;999.90;;;;;;;30.86;22.82;99577.97;10023154;23;20423;-74
2022/08/07 15:06:39;;;;;;;1999.90;999.90;;;;;;;30.86;22.35;99577.09;10027471;23;20117;-74
2022/08/07 15:10:56;;;;;;;1999.90;999.90;;;;;;;30.88;22.46;99584.06;10027664;23;20047;-74
2022/08/07 15:15:08;;;;;;;1999.90;999.90;;;;;;;30.92;22.77;99580.13;10025691;23;20053;-74
2022/08/07 15:19:28;;;;;;;1999.90;999.90;;;;;;;30.91;22.64;99581.13;10027566;23;20018;-73
2022/08/07 15:23:54;;;;;;;1999.90;999.90;;;;;;;30.65;22.71;99572.59;10023947;23;20031;-74
2022/08/07 15:28:19;;;;;;;1999.90;999.90;;;;;;;30.77;22.94;99576.06;10027108;23;20125;-73
2022/08/07 15:32:41;;;;;;;1999.90;999.90;;;;;;;30.88;22.49;99570.66;10022052;23;20026;-73
2022/08/07 15:37:04;;;;;;;1999.90;999.90;;;;;;;31.02;22.82;99569.44;10028257;23;20054;-73
2022/08/07 15:41:16;;;;;;;1999.90;999.90;;;;;;;31.08;22.33;99565.41;10026312;23;20752;-73
2022/08/07 15:45:40;;;;;;;1999.90;999.90;;;;;;;31.05;22.29;99566.50;10021806;23;20034;-73
2022/08/07 15:50:02;;;;;;;1999.90;999.90;;;;;;;31.14;22.05;99564.88;10026875;23;20054;-72
2022/08/07 15:54:08;;;;;;;1999.90;999.90;;;;;;;31.02;20.93;99557.88;10023896;23;20419;-72
2022/08/07 15:58:16;;;;;;;1999.90;999.90;;;;;;;31.11;21.74;99565.97;10026326;23;20030;-72
2022/08/07 16:02:44;;;;;;;1999.90;999.90;;;;;;;31.20;22.02;99561.66;10019481;23;20027;-72
2022/08/07 16:06:51;;;;;;;1999.90;999.90;;;;;;;31.19;21.52;99554.59;10023308;23;20014;-72
2022/08/07 16:11:00;;;;;;;1999.90;999.90;;;;;;;31.21;21.60;99552.63;10027442;23;20411;-72
2022/08/07 16:15:05;;;;;;;1999.90;999.90;;;;;;;31.08;21.18;99544.78;10022896;23;20026;-72
2022/08/07 16:19:25;;;;;;;1999.90;999.90;;;;;;;31.11;21.33;99557.09;10025285;23;20494;-72
2022/08/07 16:23:50;;;;;;;1999.90;999.90;;;;;;;31.12;21.07;99559.63;10025353;23;20061;-73
2022/08/07 16:28:09;;;;;;;1999.90;999.90;;;;;;;30.62;21.12;99555.94;10042734;23;20343;-72
2022/08/07 16:32:52;;;;;;;1999.90;999.90;;;;;;;29.92;21.25;99556.38;10021142;23;20062;-73
2022/08/07 16:37:18;;;;;;;1999.90;999.90;;;;;;;29.30;22.00;99549.75;10024933;23;20023;-72
2022/08/07 16:41:58;;;;;;;1999.90;999.90;;;;;;;28.72;23.39;99550.72;10025414;23;20030;-72
2022/08/07 16:46:28;;;;;;;1999.90;999.90;;;;;;;28.34;23.36;99550.94;10019805;23;20026;-73
2022/08/07 16:51:05;;;;;;;1999.90;999.90;;;;;;;28.02;24.27;99553.34;10026292;23;20502;-73
2022/08/07 16:55:35;;;;;;;1999.90;999.90;;;;;;;27.80;24.11;99551.38;10025582;23;20045;-72
2022/08/07 16:59:59;;;;;;;1999.90;999.90;;;;;;;27.57;23.83;99553.84;10024245;23;20015;-72
2022/08/07 17:04:17;;;;;;;1999.90;999.90;;;;;;;27.37;24.31;99557.09;10021559;23;20033;-73
2022/08/07 17:08:52;;;;;;;1999.90;999.90;;;;;;;27.19;25.35;99550.41;10022429;23;20121;-72
2022/08/07 17:13:29;;;;;;;1999.90;999.90;;;;;;;26.93;26.55;99547.72;10022058;23;20031;-72
2022/08/07 17:18:26;;;;;;;1999.90;999.90;;;;;;;26.67;25.56;99546.84;10020648;23;20046;-72
2022/08/07 17:22:37;;;;;;;1999.90;999.90;;;;;;;26.50;27.77;99555.97;10022933;23;20062;-72
2022/08/07 17:26:59;;;;;;;1999.90;999.90;;;;;;;26.30;27.17;99551.09;10026546;23;20023;-72
2022/08/07 17:31:16;;;;;;;1999.90;999.90;;;;;;;26.16;26.67;99567.97;10033834;23;20030;-72
2022/08/07 17:35:28;;;;;;;1999.90;999.90;;;;;;;26.06;26.56;99550.91;10023182;23;20023;-73
2022/08/07 17:40:13;;;;;;;1999.90;999.90;;;;;;;25.91;28.84;99573.19;10042370;23;20029;-72
2022/08/07 17:44:25;;;;;;;1999.90;999.90;;;;;;;25.69;28.97;99560.44;10026142;23;20033;-72
2022/08/07 17:48:58;;;;;;;1999.90;999.90;;;;;;;25.58;29.91;99562.88;10021880;23;20023;-72
2022/08/07 17:53:10;;;;;;;1999.90;999.90;;;;;;;25.43;29.31;99567.34;10023183;23;20026;-72
2022/08/07 17:57:39;;;;;;;;;;;;;;;25.35;28.46;99566.13;10024810;23;20019;-73
2022/08/07 18:02:43;;;;;;;1999.90;999.90;;;;;;;25.24;29.17;99572.09;10022078;23;19984;-73
2022/08/07 18:07:11;;;;;;;1999.90;999.90;;;;;;;25.12;28.71;99567.53;9997345;23;20057;-73
2022/08/07 18:11:41;;;;;;;1999.90;999.90;;;;;;;25.04;28.19;99567.16;10025384;23;20022;-72
2022/08/07 18:16:11;;;;;;;1999.90;999.90;;;;;;;24.90;29.41;99563.50;10023758;23;20027;-72
2022/08/07 18:20:17;;;;;;;1999.90;999.90;;;;;;;24.80;28.46;99575.63;10048513;23;20415;-72
2022/08/07 18:24:47;;;;;;;1999.90;999.90;;;;;;;24.70;28.55;99575.31;10024682;23;20434;-72
2022/08/07 18:29:06;;;;;;;1999.90;999.90;;;;;;;24.62;30.28;99580.25;10025745;23;20035;-74
2022/08/07 18:34:05;;;;;;;1999.90;999.90;;;;;;;24.47;29.45;99581.13;10019790;23;20146;-73
2022/08/07 18:38:50;;;;;;;1999.90;999.90;;;;;;;24.36;29.28;99594.16;10027288;23;20022;-73
2022/08/07 18:43:07;;;;;;;1999.90;999.90;;;;;;;24.24;30.53;99592.22;10028379;23;20031;-75
2022/08/07 18:47:22;;;;;;;1999.90;999.90;;;;;;;24.10;31.58;99598.28;10024548;23;20057;-73
2022/08/07 18:51:36;;;;;;;1999.90;999.90;;;;;;;23.99;30.79;99606.84;10028735;23;20018;-73
2022/08/07 18:56:04;;;;;;;1999.90;999.90;;;;;;;23.76;31.47;99602.81;10026328;23;20037;-73